sensor_id;sensor_type;location;lat;lon;timestamp;pressure;altitude;pressure_sealevel;temperature;humidity
67842;BME280;54642;59.126;37.876;2023-04-15T00:00:16;101816.41;;;2.66;32.89
67842;BME280;54642;59.126;37.876;2023-04-15T00:02:45;101802.16;;;2.55;33.19
67842;BME280;54642;59.126;37.876;2023-04-15T00:05:11;101810.59;;;2.54;32.96
67842;BME280;54642;59.126;37.876;2023-04-15T00:07:37;101814.94;;;2.55;33.31
67842;BME280;54642;59.126;37.876;2023-04-15T00:10:03;101821.13;;;2.58;33.25
67842;BME280;54642;59.126;37.876;2023-04-15T00:12:29;101810.06;;;2.59;32.99
67842;BME280;54642;59.126;37.876;2023-04-15T00:14:55;101830.44;;;2.73;33.13
67842;BME280;54642;59.126;37.876;2023-04-15T00:17:23;101822.44;;;2.66;32.92
67842;BME280;54642;59.126;37.876;2023-04-15T00:19:49;101821.03;;;2.57;33.05
67842;BME280;54642;59.126;37.876;2023-04-15T00:22:15;101807.09;;;2.52;32.83
67842;BME280;54642;59.126;37.876;2023-04-15T00:24:41;101808.59;;;2.48;33.08
67842;BME280;54642;59.126;37.876;2023-04-15T00:27:07;101840.44;;;2.53;33.15
67842;BME280;54642;59.126;37.876;2023-04-15T00:29:33;101782.50;;;2.09;32.93
67842;BME280;54642;59.126;37.876;2023-04-15T00:32:00;101828.88;;;2.45;33.25
67842;BME280;54642;59.126;37.876;2023-04-15T00:34:26;101831.81;;;2.51;33.11
67842;BME280;54642;59.126;37.876;2023-04-15T00:36:52;101816.63;;;2.39;33.21
67842;BME280;54642;59.126;37.876;2023-04-15T00:39:19;101837.09;;;2.54;33.14
67842;BME280;54642;59.126;37.876;2023-04-15T00:41:46;101833.94;;;2.43;32.83
67842;BME280;54642;59.126;37.876;2023-04-15T00:44:12;101842.50;;;2.44;33.12
67842;BME280;54642;59.126;37.876;2023-04-15T00:46:39;101837.81;;;2.37;32.84
67842;BME280;54642;59.126;37.876;2023-04-15T00:49:06;101847.16;;;2.51;33.14
67842;BME280;54642;59.126;37.876;2023-04-15T00:51:33;101831.00;;;2.37;33.25
67842;BME280;54642;59.126;37.876;2023-04-15T00:54:07;101787.91;;;1.99;33.16
67842;BME280;54642;59.126;37.876;2023-04-15T00:56:36;101850.72;;;2.38;33.18
67842;BME280;54642;59.126;37.876;2023-04-15T00:59:04;101848.50;;;2.29;33.34
67842;BME280;54642;59.126;37.876;2023-04-15T01:01:33;101845.13;;;2.45;33.39
67842;BME280;54642;59.126;37.876;2023-04-15T01:04:00;101853.94;;;2.36;33.46
67842;BME280;54642;59.126;37.876;2023-04-15T01:06:26;101762.09;;;1.79;33.30
67842;BME280;54642;59.126;37.876;2023-04-15T01:08:53;101859.69;;;2.32;33.47
67842;BME280;54642;59.126;37.876;2023-04-15T01:11:20;101830.75;;;2.03;33.24
67842;BME280;54642;59.126;37.876;2023-04-15T01:13:47;101825.75;;;2.04;33.53
67842;BME280;54642;59.126;37.876;2023-04-15T01:16:13;101862.69;;;2.24;33.56
67842;BME280;54642;59.126;37.876;2023-04-15T01:18:40;101865.53;;;2.29;33.56
67842;BME280;54642;59.126;37.876;2023-04-15T01:21:06;101863.66;;;2.26;33.62
67842;BME280;54642;59.126;37.876;2023-04-15T01:23:34;101864.53;;;2.27;33.67
67842;BME280;54642;59.126;37.876;2023-04-15T01:26:02;101881.22;;;2.35;33.74
67842;BME280;54642;59.126;37.876;2023-04-15T01:28:28;101874.25;;;2.18;33.76
67842;BME280;54642;59.126;37.876;2023-04-15T01:31:11;101839.75;;;1.96;33.82
67842;BME280;54642;59.126;37.876;2023-04-15T01:33:41;101762.03;;;1.49;34.08
67842;BME280;54642;59.126;37.876;2023-04-15T01:36:26;101860.56;;;2.17;34.15
67842;BME280;54642;59.126;37.876;2023-04-15T01:38:53;101874.72;;;2.25;33.90
67842;BME280;54642;59.126;37.876;2023-04-15T01:41:24;101884.03;;;2.25;34.11
67842;BME280;54642;59.126;37.876;2023-04-15T01:43:52;101821.84;;;1.81;34.03
67842;BME280;54642;59.126;37.876;2023-04-15T01:46:20;101889.25;;;2.12;34.02
67842;BME280;54642;59.126;37.876;2023-04-15T01:48:47;101893.72;;;2.01;34.31
67842;BME280;54642;59.126;37.876;2023-04-15T01:51:14;101886.16;;;2.02;34.51
67842;BME280;54642;59.126;37.876;2023-04-15T01:53:42;101899.81;;;2.03;34.11
67842;BME280;54642;59.126;37.876;2023-04-15T01:56:09;101890.53;;;1.90;34.20
67842;BME280;54642;59.126;37.876;2023-04-15T01:58:36;101882.94;;;1.92;34.28
67842;BME280;54642;59.126;37.876;2023-04-15T02:01:03;101894.69;;;2.03;34.19
67842;BME280;54642;59.126;37.876;2023-04-15T02:03:32;101873.16;;;1.84;34.55
67842;BME280;54642;59.126;37.876;2023-04-15T02:05:59;101895.13;;;1.96;34.51
67842;BME280;54642;59.126;37.876;2023-04-15T02:08:28;101878.59;;;1.76;34.63
67842;BME280;54642;59.126;37.876;2023-04-15T02:10:55;101899.63;;;2.00;34.82
67842;BME280;54642;59.126;37.876;2023-04-15T02:13:23;101905.34;;;1.96;34.74
67842;BME280;54642;59.126;37.876;2023-04-15T02:15:50;101910.03;;;2.03;34.80
67842;BME280;54642;59.126;37.876;2023-04-15T02:18:19;101910.22;;;2.06;34.80
67842;BME280;54642;59.126;37.876;2023-04-15T02:20:47;101898.56;;;1.96;34.98
67842;BME280;54642;59.126;37.876;2023-04-15T02:23:14;101879.34;;;1.60;35.01
67842;BME280;54642;59.126;37.876;2023-04-15T02:25:44;101835.34;;;1.50;34.97
67842;BME280;54642;59.126;37.876;2023-04-15T02:28:11;101913.63;;;1.92;35.05
67842;BME280;54642;59.126;37.876;2023-04-15T02:30:38;101911.13;;;1.78;35.28
67842;BME280;54642;59.126;37.876;2023-04-15T02:33:06;101919.22;;;1.86;35.19
67842;BME280;54642;59.126;37.876;2023-04-15T02:35:33;101885.41;;;1.62;35.37
67842;BME280;54642;59.126;37.876;2023-04-15T02:38:03;101910.56;;;1.69;35.36
67842;BME280;54642;59.126;37.876;2023-04-15T02:40:30;101900.78;;;1.48;35.56
67842;BME280;54642;59.126;37.876;2023-04-15T02:42:57;101866.25;;;1.27;35.46
67842;BME280;54642;59.126;37.876;2023-04-15T02:45:24;101923.97;;;1.51;35.67
67842;BME280;54642;59.126;37.876;2023-04-15T02:47:53;101837.03;;;1.08;35.67
67842;BME280;54642;59.126;37.876;2023-04-15T02:50:21;101922.16;;;1.64;35.62
67842;BME280;54642;59.126;37.876;2023-04-15T02:52:50;101911.00;;;1.48;35.71
67842;BME280;54642;59.126;37.876;2023-04-15T02:55:18;101928.78;;;1.60;35.63
67842;BME280;54642;59.126;37.876;2023-04-15T02:57:45;101929.66;;;1.61;35.63
67842;BME280;54642;59.126;37.876;2023-04-15T03:00:13;101892.94;;;1.45;35.75
67842;BME280;54642;59.126;37.876;2023-04-15T03:02:44;101920.50;;;1.64;35.54
67842;BME280;54642;59.126;37.876;2023-04-15T03:05:13;101924.94;;;1.67;35.47
67842;BME280;54642;59.126;37.876;2023-04-15T03:07:46;101942.22;;;1.71;35.45
67842;BME280;54642;59.126;37.876;2023-04-15T03:10:13;101928.88;;;1.62;35.70
67842;BME280;54642;59.126;37.876;2023-04-15T03:12:41;101929.56;;;1.59;35.49
67842;BME280;54642;59.126;37.876;2023-04-15T03:15:13;101932.59;;;1.67;35.48
67842;BME280;54642;59.126;37.876;2023-04-15T03:17:54;101952.00;;;1.78;35.27
67842;BME280;54642;59.126;37.876;2023-04-15T03:20:22;101946.34;;;1.69;35.29
67842;BME280;54642;59.126;37.876;2023-04-15T03:22:50;101947.06;;;1.66;35.33
67842;BME280;54642;59.126;37.876;2023-04-15T03:25:19;101918.41;;;1.44;35.38
67842;BME280;54642;59.126;37.876;2023-04-15T03:27:46;101953.41;;;1.73;35.37
67842;BME280;54642;59.126;37.876;2023-04-15T03:30:13;101945.47;;;1.68;35.24
67842;BME280;54642;59.126;37.876;2023-04-15T03:32:41;101957.50;;;1.84;35.38
67842;BME280;54642;59.126;37.876;2023-04-15T03:35:09;101946.03;;;1.78;35.27
67842;BME280;54642;59.126;37.876;2023-04-15T03:37:36;101968.09;;;1.90;35.35
67842;BME280;54642;59.126;37.876;2023-04-15T03:40:03;101972.38;;;2.05;35.26
67842;BME280;54642;59.126;37.876;2023-04-15T03:42:31;101945.19;;;1.92;35.26
67842;BME280;54642;59.126;37.876;2023-04-15T03:44:59;101895.59;;;1.75;35.60
67842;BME280;54642;59.126;37.876;2023-04-15T03:47:26;101962.88;;;2.17;35.24
67842;BME280;54642;59.126;37.876;2023-04-15T03:49:53;101953.50;;;2.03;35.14
67842;BME280;54642;59.126;37.876;2023-04-15T03:52:20;101980.00;;;2.18;35.35
67842;BME280;54642;59.126;37.876;2023-04-15T03:54:47;101989.97;;;2.28;35.42
67842;BME280;54642;59.126;37.876;2023-04-15T03:57:14;101956.38;;;2.22;35.00
67842;BME280;54642;59.126;37.876;2023-04-15T03:59:42;101863.91;;;1.58;35.00
67842;BME280;54642;59.126;37.876;2023-04-15T04:02:09;101984.09;;;2.29;35.06
67842;BME280;54642;59.126;37.876;2023-04-15T04:04:36;101984.97;;;2.30;35.00
67842;BME280;54642;59.126;37.876;2023-04-15T04:07:03;101969.84;;;2.20;34.93
67842;BME280;54642;59.126;37.876;2023-04-15T04:09:31;101983.13;;;2.27;35.00
67842;BME280;54642;59.126;37.876;2023-04-15T04:11:58;101971.09;;;2.26;34.90
67842;BME280;54642;59.126;37.876;2023-04-15T04:14:25;101998.94;;;2.50;34.67
67842;BME280;54642;59.126;37.876;2023-04-15T04:16:55;101978.97;;;2.29;34.30
67842;BME280;54642;59.126;37.876;2023-04-15T04:19:23;101996.06;;;2.31;34.56
67842;BME280;54642;59.126;37.876;2023-04-15T04:21:50;101978.16;;;2.31;34.44
67842;BME280;54642;59.126;37.876;2023-04-15T04:24:18;101987.31;;;2.27;34.22
67842;BME280;54642;59.126;37.876;2023-04-15T04:26:45;101997.31;;;2.37;34.16
67842;BME280;54642;59.126;37.876;2023-04-15T04:29:12;102003.16;;;2.50;34.35
67842;BME280;54642;59.126;37.876;2023-04-15T04:31:40;101995.72;;;2.39;33.81
67842;BME280;54642;59.126;37.876;2023-04-15T04:34:07;101971.00;;;2.25;33.85
67842;BME280;54642;59.126;37.876;2023-04-15T04:36:34;101995.16;;;2.58;33.78
67842;BME280;54642;59.126;37.876;2023-04-15T04:39:01;101990.47;;;2.51;33.90
67842;BME280;54642;59.126;37.876;2023-04-15T04:41:28;102004.25;;;2.53;33.72
67842;BME280;54642;59.126;37.876;2023-04-15T04:43:56;101980.78;;;2.60;33.76
67842;BME280;54642;59.126;37.876;2023-04-15T04:46:23;101996.84;;;2.73;33.65
67842;BME280;54642;59.126;37.876;2023-04-15T04:48:50;102001.09;;;2.87;33.66
67842;BME280;54642;59.126;37.876;2023-04-15T04:51:17;101982.38;;;2.88;33.65
67842;BME280;54642;59.126;37.876;2023-04-15T04:53:44;101982.44;;;2.90;33.40
67842;BME280;54642;59.126;37.876;2023-04-15T04:56:12;101993.06;;;2.96;33.49
67842;BME280;54642;59.126;37.876;2023-04-15T04:58:39;101956.22;;;2.79;33.48
67842;BME280;54642;59.126;37.876;2023-04-15T05:01:07;101998.97;;;3.10;33.42
67842;BME280;54642;59.126;37.876;2023-04-15T05:03:34;102007.06;;;3.17;33.53
67842;BME280;54642;59.126;37.876;2023-04-15T05:06:02;102001.75;;;3.14;33.38
67842;BME280;54642;59.126;37.876;2023-04-15T05:08:32;101987.72;;;3.08;33.26
67842;BME280;54642;59.126;37.876;2023-04-15T05:10:59;102006.25;;;3.33;33.06
67842;BME280;54642;59.126;37.876;2023-04-15T05:13:26;102017.78;;;3.41;32.86
67842;BME280;54642;59.126;37.876;2023-04-15T05:15:53;101985.34;;;3.26;33.07
67842;BME280;54642;59.126;37.876;2023-04-15T05:18:20;102008.78;;;3.48;33.07
67842;BME280;54642;59.126;37.876;2023-04-15T05:20:47;102008.28;;;3.39;33.06
67842;BME280;54642;59.126;37.876;2023-04-15T05:23:15;102005.25;;;3.46;32.84
67842;BME280;54642;59.126;37.876;2023-04-15T05:25:43;101980.53;;;3.32;32.94
67842;BME280;54642;59.126;37.876;2023-04-15T05:28:10;101982.31;;;3.64;32.96
67842;BME280;54642;59.126;37.876;2023-04-15T05:30:38;102005.09;;;3.91;32.93
67842;BME280;54642;59.126;37.876;2023-04-15T05:33:06;101988.09;;;4.09;32.65
67842;BME280;54642;59.126;37.876;2023-04-15T05:35:33;102008.22;;;4.34;32.40
67842;BME280;54642;59.126;37.876;2023-04-15T05:38:00;101977.63;;;4.05;31.95
67842;BME280;54642;59.126;37.876;2023-04-15T05:40:27;101990.38;;;4.03;32.22
67842;BME280;54642;59.126;37.876;2023-04-15T05:42:55;102009.44;;;4.08;32.47
67842;BME280;54642;59.126;37.876;2023-04-15T05:45:23;102007.28;;;4.16;32.17
67842;BME280;54642;59.126;37.876;2023-04-15T05:47:50;102018.41;;;4.16;32.16
67842;BME280;54642;59.126;37.876;2023-04-15T05:50:19;101989.72;;;4.40;31.93
67842;BME280;54642;59.126;37.876;2023-04-15T05:52:47;102006.75;;;4.56;31.72
67842;BME280;54642;59.126;37.876;2023-04-15T05:55:14;102013.75;;;4.58;31.53
67842;BME280;54642;59.126;37.876;2023-04-15T05:57:41;102004.75;;;4.50;31.33
67842;BME280;54642;59.126;37.876;2023-04-15T06:00:09;102014.16;;;4.50;31.54
67842;BME280;54642;59.126;37.876;2023-04-15T06:02:36;102017.44;;;4.64;31.36
67842;BME280;54642;59.126;37.876;2023-04-15T06:05:03;101949.22;;;4.52;31.32
67842;BME280;54642;59.126;37.876;2023-04-15T06:07:36;101997.81;;;5.00;31.17
67842;BME280;54642;59.126;37.876;2023-04-15T06:10:03;101953.47;;;4.86;31.11
67842;BME280;54642;59.126;37.876;2023-04-15T06:12:31;102002.69;;;5.30;30.86
67842;BME280;54642;59.126;37.876;2023-04-15T06:14:58;101956.56;;;5.15;30.70
67842;BME280;54642;59.126;37.876;2023-04-15T06:17:26;101968.38;;;5.47;30.90
67842;BME280;54642;59.126;37.876;2023-04-15T06:19:53;101991.84;;;5.73;30.56
67842;BME280;54642;59.126;37.876;2023-04-15T06:22:23;101983.06;;;5.87;30.55
67842;BME280;54642;59.126;37.876;2023-04-15T06:24:50;101952.34;;;5.90;30.13
67842;BME280;54642;59.126;37.876;2023-04-15T06:27:18;101962.53;;;6.07;30.09
67842;BME280;54642;59.126;37.876;2023-04-15T06:29:45;102003.78;;;6.28;30.22
67842;BME280;54642;59.126;37.876;2023-04-15T06:32:12;101981.94;;;6.20;30.34
67842;BME280;54642;59.126;37.876;2023-04-15T06:34:39;102011.03;;;6.37;29.88
67842;BME280;54642;59.126;37.876;2023-04-15T06:37:07;101990.16;;;6.30;29.67
67842;BME280;54642;59.126;37.876;2023-04-15T06:39:36;101987.13;;;6.60;29.53
67842;BME280;54642;59.126;37.876;2023-04-15T06:42:04;101991.69;;;6.87;29.48
67842;BME280;54642;59.126;37.876;2023-04-15T06:44:31;102002.44;;;6.98;29.17
67842;BME280;54642;59.126;37.876;2023-04-15T06:46:58;101994.63;;;7.17;28.96
67842;BME280;54642;59.126;37.876;2023-04-15T06:49:25;101986.56;;;7.10;28.90
67842;BME280;54642;59.126;37.876;2023-04-15T06:51:52;101996.44;;;6.99;29.00
67842;BME280;54642;59.126;37.876;2023-04-15T06:54:20;102000.59;;;7.16;29.04
67842;BME280;54642;59.126;37.876;2023-04-15T06:56:47;101999.63;;;7.35;29.02
67842;BME280;54642;59.126;37.876;2023-04-15T06:59:14;101983.16;;;7.32;28.96
67842;BME280;54642;59.126;37.876;2023-04-15T07:01:41;101996.69;;;7.49;28.81
67842;BME280;54642;59.126;37.876;2023-04-15T07:04:09;101997.75;;;7.76;28.49
67842;BME280;54642;59.126;37.876;2023-04-15T07:06:37;101988.97;;;7.71;28.63
67842;BME280;54642;59.126;37.876;2023-04-15T07:09:04;102001.44;;;7.83;28.44
67842;BME280;54642;59.126;37.876;2023-04-15T07:11:31;101990.78;;;7.74;28.48
67842;BME280;54642;59.126;37.876;2023-04-15T07:13:58;102017.75;;;7.82;28.57
67842;BME280;54642;59.126;37.876;2023-04-15T07:16:26;102011.28;;;7.71;28.60
67842;BME280;54642;59.126;37.876;2023-04-15T07:18:53;101948.34;;;7.43;28.33
67842;BME280;54642;59.126;37.876;2023-04-15T07:21:21;101951.84;;;7.45;28.59
67842;BME280;54642;59.126;37.876;2023-04-15T07:23:49;102007.97;;;7.73;28.20
67842;BME280;54642;59.126;37.876;2023-04-15T07:26:16;102006.91;;;7.68;28.23
67842;BME280;54642;59.126;37.876;2023-04-15T07:28:43;101968.84;;;7.40;28.43
67842;BME280;54642;59.126;37.876;2023-04-15T07:31:12;101997.50;;;7.70;28.15
67842;BME280;54642;59.126;37.876;2023-04-15T07:33:39;102005.13;;;7.90;28.47
67842;BME280;54642;59.126;37.876;2023-04-15T07:36:06;102009.53;;;7.92;27.77
67842;BME280;54642;59.126;37.876;2023-04-15T07:38:33;102011.22;;;7.92;27.70
67842;BME280;54642;59.126;37.876;2023-04-15T07:41:01;101992.41;;;7.94;27.44
67842;BME280;54642;59.126;37.876;2023-04-15T07:43:28;102009.50;;;8.15;27.14
67842;BME280;54642;59.126;37.876;2023-04-15T07:45:55;102011.09;;;8.11;27.30
67842;BME280;54642;59.126;37.876;2023-04-15T07:48:22;101986.66;;;8.01;27.08
67842;BME280;54642;59.126;37.876;2023-04-15T07:50:49;102004.88;;;8.06;26.79
67842;BME280;54642;59.126;37.876;2023-04-15T07:53:16;102008.16;;;8.02;26.70
67842;BME280;54642;59.126;37.876;2023-04-15T07:55:44;102012.31;;;8.21;26.85
67842;BME280;54642;59.126;37.876;2023-04-15T07:58:11;102003.75;;;8.46;26.52
67842;BME280;54642;59.126;37.876;2023-04-15T08:00:38;101972.53;;;8.16;26.14
67842;BME280;54642;59.126;37.876;2023-04-15T08:03:06;101983.03;;;8.45;26.99
67842;BME280;54642;59.126;37.876;2023-04-15T08:05:33;102005.47;;;8.71;26.50
67842;BME280;54642;59.126;37.876;2023-04-15T08:08:00;102009.66;;;8.68;25.91
67842;BME280;54642;59.126;37.876;2023-04-15T08:10:28;102000.94;;;8.64;26.10
67842;BME280;54642;59.126;37.876;2023-04-15T08:12:56;102005.63;;;8.76;25.77
67842;BME280;54642;59.126;37.876;2023-04-15T08:15:23;101993.00;;;8.59;25.44
67842;BME280;54642;59.126;37.876;2023-04-15T08:17:50;101998.75;;;8.76;25.69
67842;BME280;54642;59.126;37.876;2023-04-15T08:20:17;101992.06;;;8.83;25.43
67842;BME280;54642;59.126;37.876;2023-04-15T08:22:45;101990.28;;;8.81;25.61
67842;BME280;54642;59.126;37.876;2023-04-15T08:25:17;101958.53;;;8.59;25.40
67842;BME280;54642;59.126;37.876;2023-04-15T08:27:45;101984.31;;;8.83;25.01
67842;BME280;54642;59.126;37.876;2023-04-15T08:30:13;101982.66;;;8.85;25.07
67842;BME280;54642;59.126;37.876;2023-04-15T08:32:41;101960.13;;;8.81;25.67
67842;BME280;54642;59.126;37.876;2023-04-15T08:35:09;101982.09;;;9.48;25.35
67842;BME280;54642;59.126;37.876;2023-04-15T08:37:37;101975.88;;;9.72;25.56
67842;BME280;54642;59.126;37.876;2023-04-15T08:40:04;101986.22;;;9.72;25.05
67842;BME280;54642;59.126;37.876;2023-04-15T08:42:36;101914.28;;;9.31;25.12
67842;BME280;54642;59.126;37.876;2023-04-15T08:45:08;101976.44;;;9.62;24.96
67842;BME280;54642;59.126;37.876;2023-04-15T08:47:37;101993.44;;;9.82;25.16
67842;BME280;54642;59.126;37.876;2023-04-15T08:50:08;101977.75;;;9.78;24.72
67842;BME280;54642;59.126;37.876;2023-04-15T08:52:36;101980.56;;;9.85;24.82
67842;BME280;54642;59.126;37.876;2023-04-15T08:55:04;101920.75;;;9.46;24.65
67842;BME280;54642;59.126;37.876;2023-04-15T08:57:34;101972.09;;;9.32;23.95
67842;BME280;54642;59.126;37.876;2023-04-15T09:00:02;101925.34;;;8.99;24.45
67842;BME280;54642;59.126;37.876;2023-04-15T09:02:30;101963.25;;;9.25;24.40
67842;BME280;54642;59.126;37.876;2023-04-15T09:04:57;101957.06;;;9.49;24.35
67842;BME280;54642;59.126;37.876;2023-04-15T09:07:24;101946.94;;;9.57;25.09
67842;BME280;54642;59.126;37.876;2023-04-15T09:09:52;101962.00;;;10.00;24.92
67842;BME280;54642;59.126;37.876;2023-04-15T09:12:21;101961.22;;;10.03;24.66
67842;BME280;54642;59.126;37.876;2023-04-15T09:14:48;101952.78;;;10.10;24.72
67842;BME280;54642;59.126;37.876;2023-04-15T09:17:18;101950.06;;;10.05;24.17
67842;BME280;54642;59.126;37.876;2023-04-15T09:19:47;101949.44;;;10.14;24.69
67842;BME280;54642;59.126;37.876;2023-04-15T09:22:14;101925.66;;;9.97;24.10
67842;BME280;54642;59.126;37.876;2023-04-15T09:24:41;101904.16;;;10.00;24.16
67842;BME280;54642;59.126;37.876;2023-04-15T09:27:09;101894.38;;;10.21;24.20
67842;BME280;54642;59.126;37.876;2023-04-15T09:29:37;101935.78;;;10.88;24.38
67842;BME280;54642;59.126;37.876;2023-04-15T09:32:14;101939.72;;;11.09;23.87
67842;BME280;54642;59.126;37.876;2023-04-15T09:34:42;101923.38;;;11.11;24.39
67842;BME280;54642;59.126;37.876;2023-04-15T09:37:10;101940.28;;;10.95;24.06
67842;BME280;54642;59.126;37.876;2023-04-15T09:39:47;101929.56;;;10.81;24.22
67842;BME280;54642;59.126;37.876;2023-04-15T09:42:16;101941.41;;;10.70;24.36
67842;BME280;54642;59.126;37.876;2023-04-15T09:44:50;101937.28;;;10.78;24.73
67842;BME280;54642;59.126;37.876;2023-04-15T09:47:31;101887.47;;;10.55;24.86
67842;BME280;54642;59.126;37.876;2023-04-15T09:49:59;101934.97;;;10.54;24.56
67842;BME280;54642;59.126;37.876;2023-04-15T09:52:28;101914.97;;;10.48;24.59
67842;BME280;54642;59.126;37.876;2023-04-15T09:54:59;101930.28;;;10.41;24.26
67842;BME280;54642;59.126;37.876;2023-04-15T09:57:34;101917.69;;;10.23;24.15
67842;BME280;54642;59.126;37.876;2023-04-15T10:00:03;101932.72;;;10.35;24.69
67842;BME280;54642;59.126;37.876;2023-04-15T10:02:37;101917.59;;;10.50;25.18
67842;BME280;54642;59.126;37.876;2023-04-15T10:05:06;101880.44;;;10.51;24.65
67842;BME280;54642;59.126;37.876;2023-04-15T10:07:34;101897.41;;;10.75;24.48
67842;BME280;54642;59.126;37.876;2023-04-15T10:10:02;101868.38;;;10.53;24.66
67842;BME280;54642;59.126;37.876;2023-04-15T10:12:34;101916.56;;;10.80;24.78
67842;BME280;54642;59.126;37.876;2023-04-15T10:15:04;101905.97;;;10.71;24.54
67842;BME280;54642;59.126;37.876;2023-04-15T10:17:32;101911.03;;;10.64;24.82
67842;BME280;54642;59.126;37.876;2023-04-15T10:20:02;101880.41;;;10.49;24.54
67842;BME280;54642;59.126;37.876;2023-04-15T10:22:31;101908.75;;;10.78;24.88
67842;BME280;54642;59.126;37.876;2023-04-15T10:24:58;101915.13;;;10.93;24.58
67842;BME280;54642;59.126;37.876;2023-04-15T10:27:26;101922.13;;;10.95;24.17
67842;BME280;54642;59.126;37.876;2023-04-15T10:29:55;101913.94;;;11.15;24.73
67842;BME280;54642;59.126;37.876;2023-04-15T10:32:24;101862.06;;;10.78;24.65
67842;BME280;54642;59.126;37.876;2023-04-15T10:34:53;101907.00;;;11.15;24.86
67842;BME280;54642;59.126;37.876;2023-04-15T10:37:22;101908.66;;;11.12;24.84
67842;BME280;54642;59.126;37.876;2023-04-15T10:39:59;101909.69;;;11.18;24.18
67842;BME280;54642;59.126;37.876;2023-04-15T10:42:33;101867.03;;;11.05;24.17
67842;BME280;54642;59.126;37.876;2023-04-15T10:45:00;101892.31;;;11.57;24.55
67842;BME280;54642;59.126;37.876;2023-04-15T10:47:27;101852.91;;;11.32;24.41
67842;BME280;54642;59.126;37.876;2023-04-15T10:50:00;101888.63;;;11.45;24.33
67842;BME280;54642;59.126;37.876;2023-04-15T10:52:28;101884.91;;;11.33;24.44
67842;BME280;54642;59.126;37.876;2023-04-15T10:55:12;101893.72;;;11.39;24.69
67842;BME280;54642;59.126;37.876;2023-04-15T10:57:41;101879.78;;;11.37;24.24
67842;BME280;54642;59.126;37.876;2023-04-15T11:00:12;101857.84;;;11.21;24.17
67842;BME280;54642;59.126;37.876;2023-04-15T11:03:06;101888.38;;;11.33;24.38
67842;BME280;54642;59.126;37.876;2023-04-15T11:08:10;101875.53;;;11.39;24.29
67842;BME280;54642;59.126;37.876;2023-04-15T11:13:15;101870.38;;;11.42;24.70
67842;BME280;54642;59.126;37.876;2023-04-15T11:15:45;101865.31;;;11.47;24.63
67842;BME280;54642;59.126;37.876;2023-04-15T11:18:16;101873.47;;;11.67;24.95
67842;BME280;54642;59.126;37.876;2023-04-15T11:20:55;101868.69;;;11.89;24.49
67842;BME280;54642;59.126;37.876;2023-04-15T11:23:31;101864.56;;;11.97;24.15
67842;BME280;54642;59.126;37.876;2023-04-15T11:26:00;101866.16;;;11.90;23.91
67842;BME280;54642;59.126;37.876;2023-04-15T11:28:30;101863.28;;;11.76;24.07
67842;BME280;54642;59.126;37.876;2023-04-15T11:30:57;101857.28;;;11.79;24.55
67842;BME280;54642;59.126;37.876;2023-04-15T11:33:25;101855.63;;;11.84;24.53
67842;BME280;54642;59.126;37.876;2023-04-15T11:35:52;101840.91;;;11.85;24.09
67842;BME280;54642;59.126;37.876;2023-04-15T11:38:21;101841.44;;;11.67;24.03
67842;BME280;54642;59.126;37.876;2023-04-15T11:40:49;101849.34;;;11.73;24.08
67842;BME280;54642;59.126;37.876;2023-04-15T11:43:22;101852.84;;;11.73;23.84
67842;BME280;54642;59.126;37.876;2023-04-15T11:45:56;101856.50;;;11.85;23.89
67842;BME280;54642;59.126;37.876;2023-04-15T11:48:32;101849.75;;;11.91;23.32
67842;BME280;54642;59.126;37.876;2023-04-15T11:51:05;101824.47;;;11.86;23.57
67842;BME280;54642;59.126;37.876;2023-04-15T11:56:15;101827.94;;;12.35;23.36
67842;BME280;54642;59.126;37.876;2023-04-15T11:58:41;101822.50;;;12.18;23.39
67842;BME280;54642;59.126;37.876;2023-04-15T12:01:09;101822.41;;;12.13;23.46
67842;BME280;54642;59.126;37.876;2023-04-15T12:03:37;101812.84;;;12.12;23.83
67842;BME280;54642;59.126;37.876;2023-04-15T12:06:20;101799.19;;;12.24;23.74
67842;BME280;54642;59.126;37.876;2023-04-15T12:11:45;101804.81;;;12.53;23.63
67842;BME280;54642;59.126;37.876;2023-04-15T12:14:25;101803.72;;;12.37;23.41
67842;BME280;54642;59.126;37.876;2023-04-15T12:17:02;101799.94;;;12.17;23.59
67842;BME280;54642;59.126;37.876;2023-04-15T12:19:33;101781.41;;;11.95;23.81
67842;BME280;54642;59.126;37.876;2023-04-15T12:22:14;101805.22;;;12.22;23.63
67842;BME280;54642;59.126;37.876;2023-04-15T12:24:41;101794.53;;;12.05;23.27
67842;BME280;54642;59.126;37.876;2023-04-15T12:27:15;101794.97;;;12.31;23.37
67842;BME280;54642;59.126;37.876;2023-04-15T12:29:42;101794.38;;;12.49;23.47
67842;BME280;54642;59.126;37.876;2023-04-15T12:32:12;101791.81;;;12.53;23.33
67842;BME280;54642;59.126;37.876;2023-04-15T12:34:40;101756.94;;;12.39;23.56
67842;BME280;54642;59.126;37.876;2023-04-15T12:37:09;101791.13;;;12.64;23.00
67842;BME280;54642;59.126;37.876;2023-04-15T12:39:37;101792.72;;;12.54;23.27
67842;BME280;54642;59.126;37.876;2023-04-15T12:42:04;101729.41;;;12.50;23.55
67842;BME280;54642;59.126;37.876;2023-04-15T12:44:31;101735.03;;;12.86;23.77
67842;BME280;54642;59.126;37.876;2023-04-15T12:46:58;101771.09;;;13.24;23.62
67842;BME280;54642;59.126;37.876;2023-04-15T12:49:27;101774.88;;;13.50;23.39
67842;BME280;54642;59.126;37.876;2023-04-15T12:51:55;101767.47;;;13.92;23.18
67842;BME280;54642;59.126;37.876;2023-04-15T12:54:21;101764.03;;;13.98;22.76
67842;BME280;54642;59.126;37.876;2023-04-15T12:56:48;101751.66;;;13.75;22.80
67842;BME280;54642;59.126;37.876;2023-04-15T12:59:15;101768.34;;;13.94;22.73
67842;BME280;54642;59.126;37.876;2023-04-15T13:01:43;101749.09;;;13.80;22.61
67842;BME280;54642;59.126;37.876;2023-04-15T13:04:09;101757.97;;;14.02;22.39